Terminal Aerodrome Forecast
Issued by NWS New Orleans/Baton Rouge, LA

Home | Current Version | Previous Version | Text Only | Print | Product List | Glossary On
Versions: 1 2 3 4 5 6 7 8 9 10 11 12 13 14 15 16 17 18 19 20 21 22 23
209
FTUS44 KLIX 291517 AAA
TAFBTR
TAF AMD
KBTR 291517Z 2915/3012 11007KT P6SM SCT040 BKN050
     FM291600 15011G19KT P6SM BKN045
     FM300300 15012KT P6SM BKN015
     FM300800 16012KT P6SM OVC020
      TEMPO 3008/3012 4SM -TSRA OVC008CB=

USA.gov is the U.S. government's official web portal to all federal, state and local government web resources and services.